Time;durP1;ratioP1;P1;durP2;ratioP2;P2;SDS_P1;SDS_P2;PMS_P1;PMS_P2;Temp;Humidity;BMP_temperature;BMP_pressure;BME280_temperature;BME280_humidity;BME280_pressure;Samples;Min_cycle;Max_cycle;Signal;HPM_P1;HPM_P2
2021/08/14 00:01:53;;;;;;;17.75;8.75;;;;;;;;;;5012124;28;20057;-63
2021/08/14 00:04:39;;;;;;;20.02;9.52;;;;;;;;;;5010796;28;20046;-63
2021/08/14 00:07:24;;;;;;;21.50;10.02;;;;;;;;;;4992255;28;20053;-63
2021/08/14 00:10:10;;;;;;;19.45;9.30;;;;;;;;;;4992446;28;20059;-63
2021/08/14 00:12:55;;;;;;;21.70;10.38;;;;;;;;;;4992610;28;20058;-63
2021/08/14 00:15:40;;;;;;;18.73;9.35;;;;;;;;;;5008271;28;20510;-63
2021/08/14 00:18:26;;;;;;;19.35;9.65;;;;;;;;;;5011961;28;20125;-63
2021/08/14 00:21:11;;;;;;;22.08;10.30;;;;;;;;;;5015392;28;20419;-63
2021/08/14 00:23:56;;;;;;;18.25;9.07;;;;;;;;;;5014384;28;20049;-63
2021/08/14 00:26:42;;;;;;;20.77;10.05;;;;;;;;;;5015305;28;20045;-63
2021/08/14 00:29:27;;;;;;;23.52;10.13;;;;;;;;;;5013070;28;20053;-63
2021/08/14 00:32:12;;;;;;;18.15;9.55;;;;;;;;;;5015081;28;20042;-63
2021/08/14 00:34:58;;;;;;;18.52;8.95;;;;;;;;;;5014262;28;20108;-63
2021/08/14 00:37:43;;;;;;;24.42;9.40;;;;;;;;;;5015242;28;20054;-63
2021/08/14 00:40:29;;;;;;;23.77;8.90;;;;;;;;;;5015286;28;20400;-63
2021/08/14 00:43:14;;;;;;;19.05;8.50;;;;;;;;;;5015077;28;20054;-62
2021/08/14 00:46:03;;;;;;;16.08;8.52;;;;;;;;;;5014236;28;20050;-62
2021/08/14 00:48:48;;;;;;;17.88;8.32;;;;;;;;;;5014844;28;20038;-62
2021/08/14 00:51:33;;;;;;;18.27;7.80;;;;;;;;;;5014852;28;20554;-63
2021/08/14 00:54:19;;;;;;;15.82;7.65;;;;;;;;;;5014177;28;20532;-62
2021/08/14 00:57:04;;;;;;;16.77;7.30;;;;;;;;;;5014947;28;20054;-63
2021/08/14 00:59:50;;;;;;;15.45;7.68;;;;;;;;;;5014904;28;20058;-63
2021/08/14 01:02:35;;;;;;;16.95;7.72;;;;;;;;;;5014654;28;20053;-62
2021/08/14 01:05:21;;;;;;;13.23;7.55;;;;;;;;;;5014159;28;20042;-62
2021/08/14 01:08:06;;;;;;;19.92;7.50;;;;;;;;;;5027733;28;20081;-62
2021/08/14 01:10:52;;;;;;;13.52;7.28;;;;;;;;;;5014424;28;20129;-63
2021/08/14 01:13:37;;;;;;;19.20;8.80;;;;;;;;;;5013575;28;20046;-62
2021/08/14 01:16:22;;;;;;;19.88;9.10;;;;;;;;;;5014018;28;20050;-63
2021/08/14 01:19:07;;;;;;;15.55;7.82;;;;;;;;;;5013846;28;20523;-62
2021/08/14 01:21:53;;;;;;;21.75;8.63;;;;;;;;;;5013270;28;20096;-62
2021/08/14 01:24:38;;;;;;;17.83;8.30;;;;;;;;;;5014430;28;20128;-63
2021/08/14 01:27:23;;;;;;;22.17;7.65;;;;;;;;;;5013410;28;20416;-63
2021/08/14 01:30:09;;;;;;;16.85;7.32;;;;;;;;;;5013856;28;20613;-63
2021/08/14 01:32:55;;;;;;;23.50;9.45;;;;;;;;;;5014200;28;20714;-62
2021/08/14 01:35:42;;;;;;;18.02;9.02;;;;;;;;;;5012741;28;20050;-62
2021/08/14 01:38:28;;;;;;;20.52;8.88;;;;;;;;;;5013976;28;20046;-63
2021/08/14 01:41:13;;;;;;;17.30;8.15;;;;;;;;;;5013942;28;20445;-62
2021/08/14 01:44:08;;;;;;;20.60;8.93;;;;;;;;;;5013784;28;20414;-63
2021/08/14 01:46:53;;;;;;;17.52;9.02;;;;;;;;;;5013218;28;20586;-63
2021/08/14 01:49:39;;;;;;;20.42;9.13;;;;;;;;;;5013818;28;20161;-63
2021/08/14 01:52:24;;;;;;;20.08;9.40;;;;;;;;;;5014020;28;20128;-62
2021/08/14 01:55:10;;;;;;;18.75;10.20;;;;;;;;;;5013785;28;20060;-63
2021/08/14 01:57:55;;;;;;;19.88;9.63;;;;;;;;;;5012807;28;20500;-62
2021/08/14 02:00:40;;;;;;;27.92;10.90;;;;;;;;;;5013511;28;20100;-62
2021/08/14 02:03:25;;;;;;;21.38;9.05;;;;;;;;;;5014090;28;20049;-62
2021/08/14 02:06:11;;;;;;;20.20;9.45;;;;;;;;;;5013714;28;20064;-63
2021/08/14 02:08:57;;;;;;;22.48;9.80;;;;;;;;;;4997352;28;20042;-63
2021/08/14 02:11:43;;;;;;;23.20;8.98;;;;;;;;;;5013204;28;20092;-63
2021/08/14 02:14:28;;;;;;;26.63;9.85;;;;;;;;;;5012124;28;20065;-62
2021/08/14 02:17:13;;;;;;;22.48;9.00;;;;;;;;;;5012631;28;20061;-63
2021/08/14 02:19:59;;;;;;;23.95;9.38;;;;;;;;;;5013273;28;20057;-62
2021/08/14 02:22:44;;;;;;;21.48;8.77;;;;;;;;;;5013147;28;20519;-63
2021/08/14 02:25:29;;;;;;;22.20;9.27;;;;;;;;;;5013121;28;20056;-62
2021/08/14 02:28:15;;;;;;;22.33;9.27;;;;;;;;;;5012166;28;20087;-63
2021/08/14 02:31:01;;;;;;;24.60;9.02;;;;;;;;;;5013479;28;20049;-62
2021/08/14 02:33:46;;;;;;;19.90;9.00;;;;;;;;;;5012497;28;20045;-63
2021/08/14 02:36:32;;;;;;;19.38;8.93;;;;;;;;;;5013155;28;20132;-62
2021/08/14 02:39:17;;;;;;;26.90;8.98;;;;;;;;;;4999056;28;20097;-63
2021/08/14 02:42:02;;;;;;;20.27;9.07;;;;;;;;;;4992573;28;20057;-62
2021/08/14 02:44:48;;;;;;;19.45;8.95;;;;;;;;;;4993103;28;20057;-62
2021/08/14 02:47:33;;;;;;;23.25;8.55;;;;;;;;;;4993231;28;20046;-62
2021/08/14 02:50:19;;;;;;;21.13;9.40;;;;;;;;;;5011881;28;20578;-62
2021/08/14 02:53:04;;;;;;;16.33;8.40;;;;;;;;;;5012513;28;20120;-62
2021/08/14 02:55:49;;;;;;;20.25;9.02;;;;;;;;;;5012728;28;20045;-63
2021/08/14 02:58:35;;;;;;;25.38;9.50;;;;;;;;;;5012146;28;20159;-63
2021/08/14 03:01:20;;;;;;;22.30;8.82;;;;;;;;;;5012591;28;20139;-63
2021/08/14 03:04:06;;;;;;;18.60;7.85;;;;;;;;;;5012586;28;20169;-63
2021/08/14 03:06:56;;;;;;;25.48;8.85;;;;;;;;;;5011127;28;20140;-62
2021/08/14 03:09:41;;;;;;;20.95;9.02;;;;;;;;;;5012533;28;20046;-62
2021/08/14 03:12:26;;;;;;;19.55;8.18;;;;;;;;;;5012568;28;20128;-63
2021/08/14 03:15:12;;;;;;;19.67;8.40;;;;;;;;;;5012307;28;20422;-63
2021/08/14 03:17:57;;;;;;;20.45;8.45;;;;;;;;;;5011897;28;20492;-62
2021/08/14 03:20:42;;;;;;;27.02;9.80;;;;;;;;;;5012235;28;20534;-63
2021/08/14 03:23:28;;;;;;;24.85;8.98;;;;;;;;;;5012501;28;20050;-63
2021/08/14 03:26:13;;;;;;;21.85;8.57;;;;;;;;;;5012263;28;20081;-62
2021/08/14 03:28:59;;;;;;;20.40;9.57;;;;;;;;;;5012141;28;20141;-63
2021/08/14 03:31:44;;;;;;;21.48;9.23;;;;;;;;;;5012433;28;20415;-62
2021/08/14 03:34:29;;;;;;;23.73;9.68;;;;;;;;;;5012091;28;20057;-62
2021/08/14 03:37:15;;;;;;;17.45;9.48;;;;;;;;;;5012235;28;20432;-62
2021/08/14 03:40:00;;;;;;;24.80;9.32;;;;;;;;;;5011138;28;20123;-63
2021/08/14 03:42:45;;;;;;;22.83;9.15;;;;;;;;;;5012167;28;20053;-62
2021/08/14 03:45:31;;;;;;;25.35;9.30;;;;;;;;;;5012159;28;20046;-62
2021/08/14 03:48:16;;;;;;;25.92;9.77;;;;;;;;;;5011307;28;20046;-64
2021/08/14 03:51:02;;;;;;;24.27;9.85;;;;;;;;;;5012067;28;20049;-64
2021/08/14 03:53:47;;;;;;;29.70;9.98;;;;;;;;;;5000583;28;20049;-64
2021/08/14 03:56:32;;;;;;;26.63;10.07;;;;;;;;;;4996369;28;20496;-64
2021/08/14 03:59:18;;;;;;;26.13;9.77;;;;;;;;;;5002696;28;20591;-64
2021/08/14 04:02:03;;;;;;;24.15;10.13;;;;;;;;;;5015777;28;20050;-64
2021/08/14 04:04:49;;;;;;;22.42;10.40;;;;;;;;;;5015578;28;20046;-64
2021/08/14 04:07:35;;;;;;;24.75;10.30;;;;;;;;;;5015700;28;20141;-64
2021/08/14 04:10:20;;;;;;;23.52;10.23;;;;;;;;;;5013255;28;20050;-64
2021/08/14 04:13:05;;;;;;;26.45;10.43;;;;;;;;;;5015818;28;20046;-64
2021/08/14 04:15:50;;;;;;;22.30;9.90;;;;;;;;;;5015626;28;20053;-64
2021/08/14 04:18:36;;;;;;;27.35;10.43;;;;;;;;;;5013462;28;20115;-64
2021/08/14 04:21:22;;;;;;;31.58;11.30;;;;;;;;;;5016065;28;20203;-64
2021/08/14 04:24:07;;;;;;;22.60;11.02;;;;;;;;;;5014102;28;20504;-64
2021/08/14 04:26:53;;;;;;;20.73;10.85;;;;;;;;;;5015352;28;20050;-64
2021/08/14 04:29:40;;;;;;;24.42;10.77;;;;;;;;;;5015617;28;20054;-64
2021/08/14 04:32:25;;;;;;;20.42;10.02;;;;;;;;;;5015566;28;20049;-63
2021/08/14 04:35:12;;;;;;;27.25;10.95;;;;;;;;;;5014651;28;20049;-64
2021/08/14 04:37:57;;;;;;;22.40;9.82;;;;;;;;;;5015757;28;20046;-63
2021/08/14 04:40:42;;;;;;;24.35;10.18;;;;;;;;;;5015013;28;20073;-64
2021/08/14 04:43:27;;;;;;;23.50;9.88;;;;;;;;;;5015112;28;20052;-63
2021/08/14 04:46:13;;;;;;;25.52;10.50;;;;;;;;;;5014801;28;20536;-64
2021/08/14 04:48:58;;;;;;;25.42;10.90;;;;;;;;;;5012657;28;20381;-64
2021/08/14 04:51:44;;;;;;;30.50;11.20;;;;;;;;;;5014000;28;20045;-64
2021/08/14 04:54:29;;;;;;;29.38;11.00;;;;;;;;;;5014857;28;20471;-64
2021/08/14 04:57:14;;;;;;;23.15;10.60;;;;;;;;;;5015363;28;20057;-63
2021/08/14 04:59:59;;;;;;;23.10;10.45;;;;;;;;;;5014934;28;20056;-63
2021/08/14 05:02:45;;;;;;;21.17;10.43;;;;;;;;;;5015207;28;20057;-63
2021/08/14 05:05:31;;;;;;;25.50;11.43;;;;;;;;;;5013140;28;20050;-64
2021/08/14 05:08:17;;;;;;;28.02;11.15;;;;;;;;;;5014814;28;20523;-64
2021/08/14 05:11:02;;;;;;;35.67;11.82;;;;;;;;;;5014600;28;20049;-64
2021/08/14 05:13:48;;;;;;;27.60;11.45;;;;;;;;;;5014415;28;20048;-64
2021/08/14 05:16:36;;;;;;;24.52;10.55;;;;;;;;;;5012814;28;20511;-64
2021/08/14 05:19:21;;;;;;;25.13;11.18;;;;;;;;;;5014418;28;20481;-64
2021/08/14 05:22:07;;;;;;;29.80;11.00;;;;;;;;;;5014371;28;20077;-64
2021/08/14 05:24:52;;;;;;;25.92;11.18;;;;;;;;;;5012825;28;20060;-64
2021/08/14 05:27:37;;;;;;;30.90;12.00;;;;;;;;;;5008816;28;20084;-64
2021/08/14 05:30:23;;;;;;;25.50;10.90;;;;;;;;;;5014394;28;20045;-64
2021/08/14 05:33:09;;;;;;;29.13;11.25;;;;;;;;;;5014320;28;20112;-63
2021/08/14 05:35:54;;;;;;;27.35;11.55;;;;;;;;;;5012623;28;20046;-64
2021/08/14 05:38:40;;;;;;;25.13;11.23;;;;;;;;;;5013460;28;20508;-63
2021/08/14 05:41:26;;;;;;;31.98;11.45;;;;;;;;;;5014192;28;20108;-64
2021/08/14 05:44:11;;;;;;;30.70;10.75;;;;;;;;;;5013850;28;20050;-64
2021/08/14 05:46:57;;;;;;;28.25;10.55;;;;;;;;;;5013000;28;20041;-63
2021/08/14 05:49:42;;;;;;;29.83;11.02;;;;;;;;;;5013792;28;20411;-64
2021/08/14 05:52:27;;;;;;;30.35;11.13;;;;;;;;;;5013671;28;20060;-64
2021/08/14 05:55:13;;;;;;;25.52;11.32;;;;;;;;;;5012687;28;20052;-64
2021/08/14 05:57:59;;;;;;;22.13;10.77;;;;;;;;;;5013875;28;20177;-64
2021/08/14 06:00:44;;;;;;;28.92;11.75;;;;;;;;;;5011613;28;20894;-64
2021/08/14 06:03:36;;;;;;;28.75;12.13;;;;;;;;;;5013511;28;20046;-64
2021/08/14 06:06:21;;;;;;;28.92;11.43;;;;;;;;;;5012064;28;20053;-64
2021/08/14 06:09:07;;;;;;;27.00;13.23;;;;;;;;;;5012554;28;20512;-63
2021/08/14 06:11:52;;;;;;;32.63;11.60;;;;;;;;;;5013579;28;20046;-64
2021/08/14 06:14:39;;;;;;;27.67;11.40;;;;;;;;;;5013396;28;20049;-64
2021/08/14 06:17:24;;;;;;;28.45;12.40;;;;;;;;;;5012464;28;20068;-64
2021/08/14 06:20:12;;;;;;;27.85;10.98;;;;;;;;;;5013373;28;20532;-64
2021/08/14 06:22:57;;;;;;;42.63;12.07;;;;;;;;;;5013136;28;20103;-64
2021/08/14 06:25:43;;;;;;;29.70;12.55;;;;;;;;;;5012883;28;20535;-64
2021/08/14 06:28:28;;;;;;;32.15;13.05;;;;;;;;;;5012578;28;20183;-64
2021/08/14 06:31:16;;;;;;;28.48;11.98;;;;;;;;;;5013077;28;20147;-63
2021/08/14 06:34:01;;;;;;;25.88;11.13;;;;;;;;;;5012936;28;20412;-64
2021/08/14 06:36:46;;;;;;;28.27;11.25;;;;;;;;;;5012365;28;20049;-63
2021/08/14 06:39:32;;;;;;;30.52;11.90;;;;;;;;;;5013154;28;20050;-64
2021/08/14 06:42:17;;;;;;;30.05;12.02;;;;;;;;;;5012866;28;20680;-64
2021/08/14 06:45:03;;;;;;;25.13;11.05;;;;;;;;;;5010996;28;20045;-64
2021/08/14 06:47:48;;;;;;;22.42;12.10;;;;;;;;;;4993156;28;20046;-64
2021/08/14 06:50:38;;;;;;;27.42;11.18;;;;;;;;;;4998223;28;20041;-63
2021/08/14 06:53:23;;;;;;;26.83;10.95;;;;;;;;;;5012690;28;20381;-63
2021/08/14 06:56:09;;;;;;;29.20;12.65;;;;;;;;;;5011767;28;20050;-64
2021/08/14 06:58:54;;;;;;;27.00;11.07;;;;;;;;;;5012507;28;20045;-63
2021/08/14 07:01:40;;;;;;;28.67;12.07;;;;;;;;;;5011199;28;20064;-64
2021/08/14 07:04:25;;;;;;;27.75;11.73;;;;;;;;;;5012396;28;20187;-64
2021/08/14 07:07:10;;;;;;;33.88;12.55;;;;;;;;;;5006221;28;20073;-64
2021/08/14 07:09:56;;;;;;;28.02;13.00;;;;;;;;;;5003056;28;20433;-64
2021/08/14 07:12:43;;;;;;;27.27;12.38;;;;;;;;;;5003340;28;20046;-64
2021/08/14 07:15:31;;;;;;;31.58;11.70;;;;;;;;;;5002927;28;20077;-63
2021/08/14 07:18:16;;;;;;;29.42;12.38;;;;;;;;;;4995322;28;20046;-64
2021/08/14 07:21:02;;;;;;;27.00;12.30;;;;;;;;;;4992691;28;20166;-64
2021/08/14 07:23:47;;;;;;;38.28;13.82;;;;;;;;;;4992568;28;20046;-64
2021/08/14 07:26:32;;;;;;;25.52;11.90;;;;;;;;;;5004812;28;20072;-64
2021/08/14 07:29:18;;;;;;;28.23;12.15;;;;;;;;;;5011272;28;20507;-63
2021/08/14 07:32:04;;;;;;;23.15;11.27;;;;;;;;;;5012273;28;20412;-64
2021/08/14 07:34:49;;;;;;;28.75;11.50;;;;;;;;;;5012152;28;20246;-64
2021/08/14 07:37:34;;;;;;;26.88;12.68;;;;;;;;;;5011256;28;20103;-64
2021/08/14 07:40:21;;;;;;;28.10;11.52;;;;;;;;;;5012126;28;20050;-64
2021/08/14 07:43:08;;;;;;;26.65;10.38;;;;;;;;;;5012469;28;20137;-64
2021/08/14 07:45:53;;;;;;;25.80;10.73;;;;;;;;;;5010485;28;20052;-64
2021/08/14 07:48:38;;;;;;;19.27;8.90;;;;;;;;;;5012170;28;20049;-64
2021/08/14 07:51:24;;;;;;;22.80;9.50;;;;;;;;;;5011012;28;20048;-63
2021/08/14 07:54:09;;;;;;;22.85;10.10;;;;;;;;;;5011726;28;20057;-65
2021/08/14 07:56:56;;;;;;;22.73;9.38;;;;;;;;;;5011017;28;20065;-64
2021/08/14 07:59:41;;;;;;;22.52;9.50;;;;;;;;;;5012489;28;20056;-64
2021/08/14 08:02:26;;;;;;;24.02;8.82;;;;;;;;;;5012298;28;20061;-64
2021/08/14 08:05:12;;;;;;;19.23;7.90;;;;;;;;;;5011937;28;20511;-64
2021/08/14 08:07:57;;;;;;;20.27;7.75;;;;;;;;;;5011327;28;20558;-64
2021/08/14 08:10:43;;;;;;;18.52;6.78;;;;;;;;;;5011181;28;20049;-64
2021/08/14 08:13:28;;;;;;;20.15;6.82;;;;;;;;;;5011719;28;20046;-64
2021/08/14 08:16:14;;;;;;;17.45;5.80;;;;;;;;;;5010806;28;20431;-64
2021/08/14 08:18:59;;;;;;;21.83;6.80;;;;;;;;;;5010392;28;20526;-64
2021/08/14 08:21:44;;;;;;;20.38;6.70;;;;;;;;;;5011781;28;20060;-65
2021/08/14 08:24:30;;;;;;;21.38;7.18;;;;;;;;;;5011487;28;20520;-65
2021/08/14 08:27:15;;;;;;;16.88;6.13;;;;;;;;;;5003775;28;20497;-65
2021/08/14 08:30:01;;;;;;;18.70;7.05;;;;;;;;;;4992118;28;20057;-65
2021/08/14 08:32:46;;;;;;;18.63;5.80;;;;;;;;;;4992080;28;20054;-65
2021/08/14 08:35:31;;;;;;;18.23;5.78;;;;;;;;;;4991901;28;20062;-65
2021/08/14 08:38:20;;;;;;;14.52;4.95;;;;;;;;;;5003641;28;20519;-65
2021/08/14 08:41:05;;;;;;;13.38;4.32;;;;;;;;;;5013632;28;20468;-65
2021/08/14 08:43:50;;;;;;;11.07;4.70;;;;;;;;;;5013877;28;20061;-65
2021/08/14 08:46:35;;;;;;;17.23;4.57;;;;;;;;;;5015032;28;20542;-65
2021/08/14 08:49:21;;;;;;;15.80;5.63;;;;;;;;;;5012937;28;20057;-65
2021/08/14 08:52:07;;;;;;;15.43;4.97;;;;;;;;;;5015027;28;20131;-65
2021/08/14 08:54:52;;;;;;;16.67;5.78;;;;;;;;;;5007383;28;20064;-65
2021/08/14 08:57:38;;;;;;;15.23;5.65;;;;;;;;;;5008813;28;20038;-65
2021/08/14 09:00:23;;;;;;;13.20;5.50;;;;;;;;;;5005642;28;20038;-65
2021/08/14 09:03:12;;;;;;;17.13;6.13;;;;;;;;;;5004213;28;20181;-65
2021/08/14 09:05:57;;;;;;;15.55;6.25;;;;;;;;;;5005173;28;20527;-65
2021/08/14 09:08:43;;;;;;;17.52;5.35;;;;;;;;;;5005000;28;20066;-65
2021/08/14 09:11:29;;;;;;;16.30;6.32;;;;;;;;;;5008854;28;20046;-65
2021/08/14 09:14:14;;;;;;;13.90;7.07;;;;;;;;;;5014333;28;20034;-65
2021/08/14 09:17:08;;;;;;;14.68;7.32;;;;;;;;;;5014425;28;20057;-65
2021/08/14 09:20:10;;;;;;;21.27;7.53;;;;;;;;;;5009614;28;20057;-65
2021/08/14 09:23:05;;;;;;;18.20;6.13;;;;;;;;;;5014163;28;20168;-65
2021/08/14 09:25:57;;;;;;;14.57;5.88;;;;;;;;;;5014227;28;20049;-65
2021/08/14 09:28:42;;;;;;;13.65;5.60;;;;;;;;;;5012278;28;20050;-65
2021/08/14 09:31:27;;;;;;;12.02;4.93;;;;;;;;;;5014364;28;20085;-65
2021/08/14 09:34:16;;;;;;;12.77;5.57;;;;;;;;;;5013229;28;20050;-65
2021/08/14 09:37:05;;;;;;;13.82;5.35;;;;;;;;;;5014277;28;20092;-65
2021/08/14 09:39:59;;;;;;;17.75;5.88;;;;;;;;;;5013168;28;20064;-65
2021/08/14 09:42:52;;;;;;;13.93;5.65;;;;;;;;;;5014267;28;20054;-65
2021/08/14 09:45:37;;;;;;;15.90;6.63;;;;;;;;;;5013845;28;20046;-65
2021/08/14 09:48:24;;;;;;;14.35;5.63;;;;;;;;;;5014130;28;20120;-65
2021/08/14 09:51:26;;;;;;;14.25;5.97;;;;;;;;;;5012980;28;20447;-65
2021/08/14 09:54:12;;;;;;;16.25;5.30;;;;;;;;;;5012754;28;20347;-65
2021/08/14 09:57:13;;;;;;;14.85;5.55;;;;;;;;;;5013888;28;20046;-65
2021/08/14 09:59:58;;;;;;;18.02;5.95;;;;;;;;;;5013012;28;20050;-65
2021/08/14 10:02:43;;;;;;;15.35;6.30;;;;;;;;;;5013077;28;20136;-65
2021/08/14 10:05:29;;;;;;;15.00;4.50;;;;;;;;;;5012384;28;20550;-65
2021/08/14 10:08:14;;;;;;;15.82;4.90;;;;;;;;;;5013563;28;20185;-65
2021/08/14 10:10:59;;;;;;;14.55;6.07;;;;;;;;;;5011863;28;20033;-65
2021/08/14 10:13:45;;;;;;;14.52;5.95;;;;;;;;;;5013501;28;20049;-65
2021/08/14 10:16:30;;;;;;;17.08;6.15;;;;;;;;;;5013208;28;20046;-65
2021/08/14 10:19:16;;;;;;;14.45;5.65;;;;;;;;;;5013688;28;20081;-65
2021/08/14 10:22:01;;;;;;;16.15;5.88;;;;;;;;;;5012032;28;20147;-65
2021/08/14 10:24:46;;;;;;;12.85;5.65;;;;;;;;;;5013019;28;20042;-65
2021/08/14 10:27:54;;;;;;;19.10;6.40;;;;;;;;;;5013423;28;20056;-65
2021/08/14 10:31:06;;;;;;;19.65;5.97;;;;;;;;;;5013127;28;20131;-65
2021/08/14 10:33:51;;;;;;;15.77;6.03;;;;;;;;;;4993431;28;20054;-65
2021/08/14 10:36:36;;;;;;;15.32;6.43;;;;;;;;;;4992366;28;20043;-65
2021/08/14 10:39:31;;;;;;;17.67;6.03;;;;;;;;;;4993319;28;20104;-65
2021/08/14 10:42:16;;;;;;;15.50;5.97;;;;;;;;;;4998599;28;20038;-65
2021/08/14 10:45:14;;;;;;;16.65;7.03;;;;;;;;;;5011660;28;20034;-65
2021/08/14 10:48:03;;;;;;;14.88;6.93;;;;;;;;;;4993145;28;20173;-64
2021/08/14 10:50:55;;;;;;;17.05;7.38;;;;;;;;;;4999512;28;20399;-65
2021/08/14 10:53:43;;;;;;;14.10;6.50;;;;;;;;;;5010206;28;20049;-65
2021/08/14 10:56:47;;;;;;;18.73;6.95;;;;;;;;;;4992900;28;20838;-65
2021/08/14 10:59:38;;;;;;;19.98;6.97;;;;;;;;;;4992893;28;20053;-65
2021/08/14 11:02:23;;;;;;;20.17;6.93;;;;;;;;;;5011871;28;20046;-65
2021/08/14 11:05:09;;;;;;;33.20;7.55;;;;;;;;;;5012616;28;20128;-65
2021/08/14 11:07:55;;;;;;;16.65;6.78;;;;;;;;;;5011465;28;20049;-65
2021/08/14 11:10:41;;;;;;;19.38;7.40;;;;;;;;;;5011755;28;20054;-65
2021/08/14 11:13:32;;;;;;;18.75;7.53;;;;;;;;;;5012592;28;20131;-65
2021/08/14 11:16:38;;;;;;;16.95;6.72;;;;;;;;;;5012374;28;20046;-65
2021/08/14 11:19:41;;;;;;;18.45;6.78;;;;;;;;;;5012141;28;20057;-65
2021/08/14 11:22:46;;;;;;;14.88;6.03;;;;;;;;;;5011064;28;20057;-65
2021/08/14 11:25:33;;;;;;;16.67;6.72;;;;;;;;;;5012248;28;20411;-65
2021/08/14 11:28:25;;;;;;;17.58;6.72;;;;;;;;;;5012246;28;20048;-65
2021/08/14 11:31:11;;;;;;;;;;;;;;;;;;5012121;28;20052;-65
2021/08/14 11:34:00;;;;;;;14.82;5.82;;;;;;;;;;4992239;28;20303;-65
2021/08/14 11:36:46;;;;;;;15.02;6.07;;;;;;;;;;5003356;28;20523;-65
2021/08/14 11:39:31;;;;;;;15.82;5.60;;;;;;;;;;5012134;28;20172;-65
2021/08/14 11:42:16;;;;;;;20.02;6.60;;;;;;;;;;5011237;28;20519;-65
2021/08/14 11:45:02;;;;;;;14.75;5.20;;;;;;;;;;5009838;28;20042;-65
2021/08/14 11:47:47;;;;;;;15.82;5.85;;;;;;;;;;4992538;28;20042;-66
2021/08/14 11:50:42;;;;;;;16.60;6.15;;;;;;;;;;4998158;28;20050;-65
2021/08/14 11:53:28;;;;;;;18.15;5.95;;;;;;;;;;5011877;28;20052;-66
2021/08/14 11:56:14;;;;;;;11.35;5.43;;;;;;;;;;5011901;28;20053;-65
2021/08/14 11:58:59;;;;;;;16.85;7.22;;;;;;;;;;5011426;28;20052;-66
2021/08/14 12:01:51;;;;;;;22.48;7.13;;;;;;;;;;5009959;28;20042;-65
2021/08/14 12:04:36;;;;;;;18.65;7.95;;;;;;;;;;5011767;28;20065;-65
2021/08/14 12:07:22;;;;;;;18.80;6.90;;;;;;;;;;5010941;28;20053;-65
2021/08/14 12:10:08;;;;;;;14.68;6.20;;;;;;;;;;5011674;28;20527;-65
2021/08/14 12:13:03;;;;;;;16.30;6.47;;;;;;;;;;5010861;28;20105;-65
2021/08/14 12:15:49;;;;;;;15.32;7.00;;;;;;;;;;5005832;28;20040;-65
2021/08/14 12:18:35;;;;;;;17.70;7.13;;;;;;;;;;5005617;28;20047;-65
2021/08/14 12:21:21;;;;;;;15.70;6.20;;;;;;;;;;5008422;28;20463;-65
2021/08/14 12:24:08;;;;;;;14.93;6.53;;;;;;;;;;5015010;28;20463;-64
2021/08/14 12:26:53;;;;;;;15.65;5.47;;;;;;;;;;5015682;28;20053;-66
2021/08/14 12:29:38;;;;;;;13.82;4.78;;;;;;;;;;5015412;28;20041;-65
2021/08/14 12:32:30;;;;;;;15.90;5.25;;;;;;;;;;5014952;28;20049;-66
2021/08/14 12:35:15;;;;;;;;;;;;;;;;;;5015929;28;20510;-66
2021/08/14 12:38:07;;;;;;;12.18;4.78;;;;;;;;;;5014751;28;19921;-66
2021/08/14 12:40:53;;;;;;;9.45;4.07;;;;;;;;;;5015170;28;20424;-65
2021/08/14 12:43:42;;;;;;;11.90;4.05;;;;;;;;;;5013103;28;20582;-66
2021/08/14 12:46:27;;;;;;;9.57;4.60;;;;;;;;;;5015847;28;20046;-65
2021/08/14 12:49:19;;;;;;;11.38;3.75;;;;;;;;;;5015688;28;20485;-65
2021/08/14 12:52:04;;;;;;;7.30;3.15;;;;;;;;;;5015592;28;20076;-65
2021/08/14 12:54:56;;;;;;;11.40;4.07;;;;;;;;;;5015248;28;20045;-66
2021/08/14 12:57:41;;;;;;;10.73;3.40;;;;;;;;;;5015477;28;20493;-66
2021/08/14 13:00:27;;;;;;;8.20;3.65;;;;;;;;;;5014020;28;20124;-65
2021/08/14 13:03:12;;;;;;;6.82;3.22;;;;;;;;;;5014484;28;20058;-66
2021/08/14 13:05:57;;;;;;;7.00;2.72;;;;;;;;;;5014120;28;20038;-66
2021/08/14 13:08:43;;;;;;;8.18;3.47;;;;;;;;;;5014710;28;20064;-66
2021/08/14 13:11:28;;;;;;;8.15;2.80;;;;;;;;;;5014594;28;20448;-66
2021/08/14 13:14:13;;;;;;;8.20;3.03;;;;;;;;;;5013437;28;20042;-66
2021/08/14 13:16:59;;;;;;;12.50;4.25;;;;;;;;;;5007894;28;20144;-66
2021/08/14 13:19:44;;;;;;;7.78;3.47;;;;;;;;;;4994764;28;20073;-66
2021/08/14 13:22:31;;;;;;;6.43;3.50;;;;;;;;;;4994822;28;20054;-66
2021/08/14 13:25:16;;;;;;;9.65;3.65;;;;;;;;;;4998753;28;20077;-66
2021/08/14 13:28:01;;;;;;;10.85;3.47;;;;;;;;;;5014052;28;20053;-66
2021/08/14 13:30:46;;;;;;;7.82;3.55;;;;;;;;;;5014133;28;20050;-66
2021/08/14 13:33:31;;;;;;;9.10;3.55;;;;;;;;;;5013098;28;20068;-66
2021/08/14 13:36:16;;;;;;;9.75;4.05;;;;;;;;;;5013502;28;20046;-66
2021/08/14 13:39:02;;;;;;;12.05;3.50;;;;;;;;;;5012512;28;20523;-66
2021/08/14 13:41:47;;;;;;;7.97;3.55;;;;;;;;;;5012014;28;20168;-66
2021/08/14 13:44:33;;;;;;;7.82;3.38;;;;;;;;;;4994345;28;20100;-66
2021/08/14 13:47:18;;;;;;;5.63;2.67;;;;;;;;;;5013474;28;20500;-66
2021/08/14 13:50:07;;;;;;;10.23;3.70;;;;;;;;;;5013234;28;20056;-66
2021/08/14 13:52:52;;;;;;;9.55;3.58;;;;;;;;;;5013986;28;20046;-65
2021/08/14 13:55:37;;;;;;;8.90;3.33;;;;;;;;;;5012808;28;20047;-65
2021/08/14 13:58:22;;;;;;;8.95;3.92;;;;;;;;;;5013803;28;20416;-65
2021/08/14 14:01:08;;;;;;;8.43;3.80;;;;;;;;;;5013743;28;20034;-65
2021/08/14 14:03:53;;;;;;;11.60;3.88;;;;;;;;;;5013218;28;20185;-65
2021/08/14 14:06:39;;;;;;;11.35;3.53;;;;;;;;;;5012494;28;20512;-65
2021/08/14 14:09:28;;;;;;;9.65;3.97;;;;;;;;;;5013474;28;20057;-65
2021/08/14 14:12:14;;;;;;;10.73;3.60;;;;;;;;;;5013301;28;20053;-65
2021/08/14 14:14:59;;;;;;;8.80;4.43;;;;;;;;;;5013466;28;20049;-65
2021/08/14 14:17:45;;;;;;;7.25;3.47;;;;;;;;;;5012075;28;20575;-65
2021/08/14 14:20:31;;;;;;;9.70;3.90;;;;;;;;;;5013092;28;20038;-65
2021/08/14 14:23:16;;;;;;;9.90;3.92;;;;;;;;;;5013282;28;20053;-65
2021/08/14 14:26:01;;;;;;;11.02;3.67;;;;;;;;;;5012984;28;20092;-66
2021/08/14 14:28:50;;;;;;;11.43;4.18;;;;;;;;;;5011619;28;20409;-65
2021/08/14 14:31:35;;;;;;;7.35;3.58;;;;;;;;;;5012945;28;20385;-65
2021/08/14 14:34:22;;;;;;;9.30;3.78;;;;;;;;;;5013274;28;20122;-66
2021/08/14 14:37:07;;;;;;;10.65;3.97;;;;;;;;;;5012019;28;20127;-66
2021/08/14 14:39:53;;;;;;;9.23;4.10;;;;;;;;;;5011655;28;20807;-65
2021/08/14 14:42:38;;;;;;;8.90;4.45;;;;;;;;;;5012045;28;20060;-66
2021/08/14 14:45:23;;;;;;;29.27;5.10;;;;;;;;;;5011710;28;20052;-65
2021/08/14 14:48:09;;;;;;;8.90;4.10;;;;;;;;;;5013890;28;20056;-65
2021/08/14 14:50:54;;;;;;;9.18;4.22;;;;;;;;;;5013645;28;20065;-66
2021/08/14 14:53:40;;;;;;;8.80;3.83;;;;;;;;;;5012523;28;20042;-65
2021/08/14 14:56:25;;;;;;;9.50;4.35;;;;;;;;;;5014115;28;20056;-65
2021/08/14 14:59:10;;;;;;;11.15;4.38;;;;;;;;;;5013631;28;20424;-65
2021/08/14 15:01:55;;;;;;;10.10;4.93;;;;;;;;;;5011996;28;20180;-66
2021/08/14 15:04:41;;;;;;;6.63;3.97;;;;;;;;;;5013146;28;20046;-66
2021/08/14 15:07:26;;;;;;;9.50;4.03;;;;;;;;;;5013559;28;20410;-65
2021/08/14 15:10:12;;;;;;;8.07;4.22;;;;;;;;;;5012453;28;20048;-64
2021/08/14 15:12:58;;;;;;;10.80;4.72;;;;;;;;;;5012744;28;20429;-66
2021/08/14 15:15:43;;;;;;;16.90;4.60;;;;;;;;;;5012293;28;20045;-66
2021/08/14 15:18:29;;;;;;;8.07;3.95;;;;;;;;;;5012451;28;20068;-65
2021/08/14 15:21:14;;;;;;;8.70;4.18;;;;;;;;;;5011238;28;20500;-65
2021/08/14 15:24:00;;;;;;;9.57;4.30;;;;;;;;;;5012705;28;20069;-65
2021/08/14 15:26:45;;;;;;;8.98;4.00;;;;;;;;;;5011317;28;20052;-65
2021/08/14 15:29:31;;;;;;;6.78;3.83;;;;;;;;;;5012742;28;20156;-66
2021/08/14 15:32:16;;;;;;;9.23;4.03;;;;;;;;;;5011303;28;20042;-65
2021/08/14 15:35:01;;;;;;;9.57;3.67;;;;;;;;;;5012774;28;20042;-65
2021/08/14 15:37:46;;;;;;;8.85;4.47;;;;;;;;;;5012736;28;20165;-65
2021/08/14 15:40:33;;;;;;;7.68;3.25;;;;;;;;;;5011754;28;20064;-65
2021/08/14 15:43:18;;;;;;;5.90;3.60;;;;;;;;;;5012507;28;20518;-65
2021/08/14 15:46:04;;;;;;;7.47;4.03;;;;;;;;;;5012233;28;20602;-65
2021/08/14 15:48:49;;;;;;;8.10;3.63;;;;;;;;;;5011636;28;20050;-65
2021/08/14 15:51:34;;;;;;;9.13;3.33;;;;;;;;;;5015700;28;20093;-65
2021/08/14 15:54:19;;;;;;;8.25;3.55;;;;;;;;;;5015973;28;20407;-65
2021/08/14 15:57:05;;;;;;;6.43;3.20;;;;;;;;;;5016477;28;20048;-65
2021/08/14 15:59:50;;;;;;;8.18;2.78;;;;;;;;;;5016164;28;20172;-65
2021/08/14 16:02:36;;;;;;;9.02;3.45;;;;;;;;;;5016225;28;20119;-65
2021/08/14 16:05:21;;;;;;;7.38;2.78;;;;;;;;;;5016591;28;20076;-65
2021/08/14 16:08:07;;;;;;;7.22;3.03;;;;;;;;;;5017274;28;20073;-65
2021/08/14 16:10:52;;;;;;;9.50;3.20;;;;;;;;;;5015650;28;20140;-65
2021/08/14 16:13:37;;;;;;;8.90;2.97;;;;;;;;;;5016283;28;20451;-66
2021/08/14 16:16:23;;;;;;;7.10;3.13;;;;;;;;;;5016604;28;20490;-65
2021/08/14 16:19:08;;;;;;;7.22;2.67;;;;;;;;;;5015666;28;20056;-65
2021/08/14 16:21:54;;;;;;;6.90;2.67;;;;;;;;;;5035439;23;20046;-65